Time;durP1;ratioP1;P1;durP2;ratioP2;P2;SDS_P1;SDS_P2;PMS_P1;PMS_P2;Temp;Humidity;BMP_temperature;BMP_pressure;BME280_temperature;BME280_humidity;BME280_pressure;Samples;Min_cycle;Max_cycle;Signal;HPM_P1;HPM_P2
2022/01/26 00:06:46;;;;;;;;;;;;;;;7.71;53.93;102207.69;5030710;28;7423;-71
2022/01/26 00:09:13;;;;;;;;;;;;;;;7.71;54.69;102207.69;5012998;28;6993;-71
2022/01/26 00:11:40;;;;;;;;;;;;;;;7.69;54.53;102206.66;5046648;28;6998;-71
2022/01/26 00:14:11;;;;;;;;;;;;;;;7.67;53.86;102200.53;5059284;28;7201;-71
2022/01/26 00:16:40;;;;;;;;;;;;;;;7.64;54.38;102196.94;5004501;28;6807;-71
2022/01/26 00:19:11;;;;;;;;;;;;;;;7.62;54.67;102195.91;5020327;28;7205;-71
2022/01/26 00:21:43;;;;;;;;;;;;;;;7.61;54.34;102196.66;5027060;28;6984;-71
2022/01/26 00:29:40;;;;;;;;;;;;;;;7.60;54.22;102207.63;5030914;28;6836;-71
2022/01/26 00:43:05;;;;;;;;;;;;;;;7.59;54.66;102210.06;5023976;28;6803;-71
2022/01/26 00:45:35;;;;;;;;;;;;;;;7.57;54.02;102206.44;5019242;28;6836;-71
2022/01/26 00:48:05;;;;;;;;;;;;;;;7.56;54.46;102200.47;5019689;28;6912;-71
2022/01/26 00:50:33;;;;;;;;;;;;;;;7.54;53.93;102199.44;5004612;28;7369;-72
2022/01/26 00:52:59;;;;;;;;;;;;;;;7.55;54.04;102201.25;5026900;28;6904;-71
2022/01/26 00:55:25;;;;;;;;;;;;;;;7.57;54.54;102197.16;5034843;28;6808;-71
2022/01/26 00:57:51;;;;;;;;;;;;;;;7.58;54.57;102201.50;5044906;28;7030;-71
2022/01/26 01:00:25;;;;;;;;;;;;;;;7.59;53.88;102205.84;5035879;28;7300;-71
2022/01/26 01:02:53;;;;;;;;;;;;;;;7.58;54.00;102209.16;5056820;28;6983;-71
2022/01/26 01:05:22;;;;;;;;;;;;;;;7.58;54.13;102198.03;5026575;28;6815;-71
2022/01/26 01:07:53;;;;;;;;;;;;;;;7.58;54.89;102209.16;5039761;28;6808;-71
2022/01/26 01:10:22;;;;;;;;;;;;;;;7.59;54.54;102199.84;5026025;28;6873;-72
2022/01/26 01:12:52;;;;;;;;;;;;;;;7.58;54.27;102201.50;5024098;28;6990;-71
2022/01/26 01:15:18;;;;;;;;;;;;;;;7.59;54.16;102207.50;5010763;28;7284;-71
2022/01/26 01:17:49;;;;;;;;;;;;;;;7.61;53.93;102211.09;5038738;28;6800;-71
2022/01/26 01:23:08;;;;;;;;;;;;;;;7.58;54.96;102205.69;5024193;28;6824;-71
2022/01/26 01:30:58;;;;;;;;;;;;;;;7.51;53.89;102219.56;5021990;28;7018;-72
2022/01/26 01:33:31;;;;;;;;;;;;;;;7.48;54.25;102204.00;5013796;28;7884;-71
2022/01/26 01:35:59;;;;;;;;;;;;;;;7.48;55.10;102210.00;5036514;28;6899;-71
2022/01/26 01:38:28;;;;;;;;;;;;;;;7.49;54.25;102205.78;5012492;28;7145;-71
2022/01/26 01:40:55;;;;;;;;;;;;;;;7.47;54.26;102203.06;5019318;28;7237;-71
2022/01/26 01:43:23;;;;;;;;;;;;;;;7.47;54.83;102209.84;5021797;28;7077;-71
2022/01/26 01:45:52;;;;;;;;;;;;;;;7.46;54.33;102206.41;5017642;28;8126;-71
2022/01/26 01:48:26;;;;;;;;;;;;;;;7.44;54.51;102214.69;5035223;28;7306;-71
2022/01/26 01:50:54;;;;;;;;;;;;;;;7.43;54.54;102205.22;5017059;28;6808;-71
2022/01/26 01:53:31;;;;;;;;;;;;;;;7.44;54.96;102209.59;5018570;28;6980;-71
2022/01/26 01:55:59;;;;;;;;;;;;;;;7.43;55.38;102206.13;5002189;28;7308;-71
2022/01/26 01:58:25;;;;;;;;;;;;;;;7.42;54.53;102199.25;5015804;28;6987;-71
2022/01/26 02:00:51;;;;;;;;;;;;;;;7.43;55.27;102195.94;5055060;28;6811;-71
2022/01/26 02:03:16;;;;;;;;;;;;;;;7.42;54.61;102194.13;5004152;28;6867;-71
2022/01/26 02:05:42;;;;;;;;;;;;;;;7.41;54.67;102192.34;5018208;28;6803;-71
2022/01/26 02:08:08;;;;;;;;;;;;;;;7.41;55.84;102194.00;5019739;28;6889;-71
2022/01/26 02:10:36;;;;;;;;;;;;;;;7.42;55.48;102188.13;5005813;28;7107;-71
2022/01/26 02:13:13;;;;;;;;;;;;;;;7.43;55.63;102189.91;5018509;28;6823;-71
2022/01/26 02:15:47;;;;;;;;;;;;;;;7.44;55.68;102186.63;5027136;28;6955;-71
2022/01/26 02:53:42;;;;;;;;;;;;;;;7.44;54.71;102176.44;5024854;28;7880;-71
2022/01/26 02:56:16;;;;;;;;;;;;;;;7.46;55.44;102165.56;5034669;28;6967;-71
2022/01/26 03:01:59;;;;;;;;;;;;;;;7.41;54.70;102158.28;5014542;28;7242;-71
2022/01/26 03:04:41;;;;;;;;;;;;;;;7.38;55.21;102166.53;5027174;28;6819;-71
2022/01/26 03:07:15;;;;;;;;;;;;;;;7.35;54.38;102162.09;5037596;28;7584;-71
2022/01/26 03:09:55;;;;;;;;;;;;;;;7.35;54.69;102164.63;5040499;28;6828;-71
2022/01/26 03:12:31;;;;;;;;;;;;;;;7.32;54.35;102161.78;5037218;28;7861;-71
2022/01/26 03:15:01;;;;;;;;;;;;;;;7.30;54.86;102158.22;5012387;28;6982;-71
2022/01/26 03:20:11;;;;;;;;;;;;;;;7.27;54.30;102163.06;5036767;28;6858;-71
2022/01/26 03:33:24;;;;;;;;;;;;;;;7.27;54.39;102123.88;5019276;28;6839;-71
2022/01/26 03:35:55;;;;;;;;;;;;;;;7.29;54.55;102130.91;5024307;28;7034;-71
2022/01/26 03:40:49;;;;;;;;;;;;;;;7.26;54.27;102115.34;5042001;28;6973;-71
2022/01/26 03:43:15;;;;;;;;;;;;;;;7.25;54.11;102120.31;5028176;28;6876;-71
2022/01/26 03:45:40;;;;;;;;;;;;;;;7.21;54.58;102127.69;5026097;28;6787;-71
2022/01/26 03:48:06;;;;;;;;;;;;;;;7.20;54.96;102117.34;5038475;28;7413;-71
2022/01/26 03:50:32;;;;;;;;;;;;;;;7.18;54.41;102109.53;5000593;28;7020;-71
2022/01/26 03:52:57;;;;;;;;;;;;;;;7.16;54.39;102118.72;5042159;28;6795;-71
2022/01/26 03:55:23;;;;;;;;;;;;;;;7.16;54.53;102120.41;5056281;28;6910;-71
2022/01/26 03:57:49;;;;;;;;;;;;;;;7.14;54.99;102119.34;5027842;28;6933;-71
2022/01/26 04:00:17;;;;;;;;;;;;;;;7.15;54.79;102116.06;5024572;28;7037;-71
2022/01/26 04:02:43;;;;;;;;;;;;;;;7.12;54.91;102106.47;5035014;28;6796;-70
2022/01/26 04:05:11;;;;;;;;;;;;;;;7.08;54.85;102107.84;5022814;28;6859;-70
2022/01/26 04:07:38;;;;;;;;;;;;;;;7.06;54.54;102106.81;5040097;28;6899;-71
2022/01/26 04:10:17;;;;;;;;;;;;;;;7.04;54.59;102104.88;5011817;28;6875;-71
2022/01/26 04:12:42;;;;;;;;;;;;;;;7.01;54.41;102112.25;5031217;28;6835;-71
2022/01/26 04:15:19;;;;;;;;;;;;;;;6.99;55.27;102121.41;5037494;28;6894;-71
2022/01/26 04:17:45;;;;;;;;;;;;;;;6.96;54.92;102134.78;5029986;28;6803;-71
2022/01/26 04:20:12;;;;;;;;;;;;;;;6.98;55.02;102127.25;5039313;28;6864;-71
2022/01/26 04:22:49;;;;;;;;;;;;;;;6.95;55.12;102130.41;5030875;28;6855;-71
2022/01/26 04:25:20;;;;;;;;;;;;;;;6.97;54.90;102130.56;5021307;28;7158;-71
2022/01/26 04:27:49;;;;;;;;;;;;;;;6.98;54.64;102129.81;5038224;28;7002;-71
2022/01/26 04:30:15;;;;;;;;;;;;;;;6.99;54.72;102119.75;5003014;28;6824;-71
2022/01/26 04:32:40;;;;;;;;;;;;;;;7.01;55.03;102132.66;5006675;28;6799;-71
2022/01/26 04:35:08;;;;;;;;;;;;;;;7.04;54.95;102144.00;5027253;28;6878;-71
2022/01/26 04:40:42;;;;;;;;;;;;;;;7.06;54.53;102129.75;4967860;28;6900;-71
2022/01/26 04:43:15;;;;;;;;;;;;;;;7.05;55.01;102122.88;5047769;28;6820;-71
2022/01/26 04:45:41;;;;;;;;;;;;;;;7.02;55.07;102130.22;5027297;28;7276;-71
2022/01/26 04:48:06;;;;;;;;;;;;;;;7.00;54.38;102125.75;5063245;28;7332;-70
2022/01/26 04:50:32;;;;;;;;;;;;;;;6.96;54.38;102132.25;5039375;28;6799;-71
2022/01/26 04:52:58;;;;;;;;;;;;;;;6.93;54.97;102145.59;5029637;28;6795;-71
2022/01/26 04:55:24;;;;;;;;;;;;;;;6.92;54.77;102159.09;5026578;28;10574;-70
2022/01/26 04:57:49;;;;;;;;;;;;;;;6.92;54.44;102165.84;5034014;28;6942;-71
2022/01/26 05:00:16;;;;;;;;;;;;;;;6.92;54.71;102164.22;5021993;28;6859;-71
2022/01/26 05:02:42;;;;;;;;;;;;;;;6.90;55.07;102165.69;5024455;28;7939;-71
2022/01/26 05:05:08;;;;;;;;;;;;;;;6.91;54.91;102166.59;5039375;28;6795;-71
2022/01/26 05:07:34;;;;;;;;;;;;;;;6.92;54.85;102166.75;5016487;28;10101;-71
2022/01/26 05:10:02;;;;;;;;;;;;;;;6.92;54.90;102160.75;5026558;28;7296;-70
2022/01/26 05:12:27;;;;;;;;;;;;;;;6.91;55.06;102170.06;5042228;28;7907;-71
2022/01/26 05:14:53;;;;;;;;;;;;;;;6.91;54.34;102172.63;5029255;28;6949;-70
2022/01/26 05:17:20;;;;;;;;;;;;;;;6.94;54.60;102177.06;5017119;28;6971;-70
2022/01/26 05:19:47;;;;;;;;;;;;;;;6.95;55.09;102173.75;5055630;28;7379;-71
2022/01/26 05:22:13;;;;;;;;;;;;;;;6.96;54.89;102190.88;5038376;28;6971;-71
2022/01/26 05:24:39;;;;;;;;;;;;;;;6.94;54.45;102189.81;5037876;28;7788;-71
2022/01/26 05:27:05;;;;;;;;;;;;;;;6.92;54.31;102194.78;5006670;28;6963;-70
2022/01/26 05:29:31;;;;;;;;;;;;;;;6.92;54.38;102204.09;5023350;28;7345;-70
2022/01/26 05:31:57;;;;;;;;;;;;;;;6.91;54.61;102202.28;5018277;28;6764;-70
2022/01/26 05:34:22;;;;;;;;;;;;;;;6.91;54.87;102192.09;5026875;28;6895;-71
2022/01/26 05:36:48;;;;;;;;;;;;;;;6.89;54.70;102199.59;5023900;28;7205;-70
2022/01/26 05:39:13;;;;;;;;;;;;;;;6.88;54.61;102179.97;5042371;28;6783;-70
2022/01/26 05:41:39;;;;;;;;;;;;;;;6.87;54.61;102184.94;5040860;28;8061;-71
2022/01/26 05:44:07;;;;;;;;;;;;;;;6.86;54.17;102194.22;5021434;28;7238;-70
2022/01/26 05:46:41;;;;;;;;;;;;;;;6.88;54.88;102187.59;5036109;28;6803;-70
2022/01/26 05:49:07;;;;;;;;;;;;;;;6.89;54.70;102183.41;5022462;28;7277;-71
2022/01/26 05:51:33;;;;;;;;;;;;;;;6.88;54.31;102157.03;5016507;28;7336;-71
2022/01/26 05:54:01;;;;;;;;;;;;;;;6.89;54.17;102150.28;5016357;28;6783;-71
2022/01/26 05:56:27;;;;;;;;;;;;;;;6.89;54.78;102163.91;5034629;28;7840;-71
2022/01/26 05:58:52;;;;;;;;;;;;;;;6.91;54.88;102161.50;5018335;28;6768;-71
2022/01/26 06:01:20;;;;;;;;;;;;;;;6.90;54.71;102164.81;5019172;28;6776;-71
2022/01/26 06:03:45;;;;;;;;;;;;;;;6.90;54.64;102163.16;5022209;28;7137;-71
2022/01/26 06:06:11;;;;;;;;;;;;;;;6.91;54.61;102172.63;5025205;28;6862;-71
2022/01/26 06:08:37;;;;;;;;;;;;;;;6.91;54.63;102161.50;5026750;28;6903;-70
2022/01/26 06:11:04;;;;;;;;;;;;;;;6.93;54.78;102165.09;5030493;28;6956;-70
2022/01/26 06:13:30;;;;;;;;;;;;;;;6.93;54.60;102165.09;5035908;28;6998;-71
2022/01/26 06:15:56;;;;;;;;;;;;;;;6.92;54.42;102142.91;5031606;28;7746;-71
2022/01/26 06:18:22;;;;;;;;;;;;;;;6.93;54.36;102145.59;5033038;28;6823;-71
2022/01/26 06:20:48;;;;;;;;;;;;;;;6.93;54.20;102137.03;5035017;28;7221;-71
2022/01/26 06:23:14;;;;;;;;;;;;;;;6.92;54.20;102112.31;5011986;28;7691;-70
2022/01/26 06:25:41;;;;;;;;;;;;;;;6.90;54.46;102122.34;5027554;28;6791;-71
2022/01/26 06:28:11;;;;;;;;;;;;;;;6.88;54.83;102140.84;5032179;28;6928;-71
2022/01/26 06:30:37;;;;;;;;;;;;;;;6.86;54.54;102142.38;5012516;28;7401;-71
2022/01/26 06:33:05;;;;;;;;;;;;;;;6.84;54.21;102136.22;5025993;28;8068;-70
2022/01/26 06:35:34;;;;;;;;;;;;;;;6.83;54.54;102136.97;5029982;28;8076;-70
2022/01/26 06:38:00;;;;;;;;;;;;;;;6.80;54.32;102143.59;5020475;28;7047;-71
2022/01/26 06:40:25;;;;;;;;;;;;;;;6.78;54.60;102140.00;5022284;28;7315;-71
2022/01/26 06:42:55;;;;;;;;;;;;;;;6.78;55.19;102127.25;5028332;28;7181;-70
2022/01/26 06:45:25;;;;;;;;;;;;;;;6.77;54.56;102142.41;5040174;28;7092;-70
2022/01/26 06:50:27;;;;;;;;;;;;;;;6.76;54.50;102138.06;5029577;28;6846;-70
2022/01/26 06:52:53;;;;;;;;;;;;;;;6.76;55.15;102146.63;5027613;28;6796;-70
2022/01/26 06:55:22;;;;;;;;;;;;;;;6.75;55.20;102155.00;5027821;28;6991;-71
2022/01/26 06:57:48;;;;;;;;;;;;;;;6.76;54.54;102161.91;5037963;28;7462;-70
2022/01/26 07:00:14;;;;;;;;;;;;;;;6.76;54.63;102159.38;5007117;28;7341;-71
2022/01/26 07:02:40;;;;;;;;;;;;;;;6.76;54.81;102167.00;5037645;28;6888;-71
2022/01/26 07:05:08;;;;;;;;;;;;;;;6.74;54.84;102155.75;5042961;28;6888;-71
2022/01/26 07:07:34;;;;;;;;;;;;;;;6.73;55.19;102160.72;5024787;28;7368;-71
2022/01/26 07:10:00;;;;;;;;;;;;;;;6.69;54.77;102151.91;5025252;28;7956;-70
2022/01/26 07:12:25;;;;;;;;;;;;;;;6.66;55.03;102141.41;5029333;28;7231;-70
2022/01/26 07:22:51;;;;;;;;;;;;;;;6.52;55.87;102115.56;5024738;28;6916;-71
2022/01/26 07:25:17;;;;;;;;;;;;;;;6.52;55.32;102120.66;5025759;28;6787;-71
2022/01/26 07:27:43;;;;;;;;;;;;;;;6.51;55.77;102129.06;5038573;28;7215;-70
2022/01/26 07:30:09;;;;;;;;;;;;;;;6.50;55.47;102142.56;5023847;28;6801;-70
2022/01/26 07:32:37;;;;;;;;;;;;;;;6.51;55.52;102149.44;5055594;28;7229;-70
2022/01/26 07:35:06;;;;;;;;;;;;;;;6.51;55.69;102151.09;5022762;28;6892;-70
2022/01/26 07:37:32;;;;;;;;;;;;;;;6.52;55.77;102150.34;5038466;28;6808;-70
2022/01/26 07:40:04;;;;;;;;;;;;;;;6.53;56.00;102144.50;5020748;28;6776;-70
2022/01/26 07:42:31;;;;;;;;;;;;;;;6.55;55.15;102154.81;5021952;28;7018;-71
2022/01/26 07:44:56;;;;;;;;;;;;;;;6.56;55.29;102161.69;5021244;28;6983;-71
2022/01/26 07:47:23;;;;;;;;;;;;;;;6.56;56.00;102162.63;4994091;28;7892;-71
2022/01/26 07:49:55;;;;;;;;;;;;;;;6.60;55.66;102161.25;5020725;28;6940;-71
2022/01/26 07:52:21;;;;;;;;;;;;;;;6.60;55.42;102157.03;4999092;28;6819;-71
2022/01/26 07:54:51;;;;;;;;;;;;;;;6.62;55.36;102141.91;5023238;28;7030;-71
2022/01/26 07:57:18;;;;;;;;;;;;;;;6.62;55.26;102136.81;5038688;28;7093;-71
2022/01/26 07:59:46;;;;;;;;;;;;;;;6.61;55.50;102119.72;5029248;28;7146;-70
2022/01/26 08:02:11;;;;;;;;;;;;;;;6.60;55.26;102129.00;5020008;28;6811;-70
2022/01/26 08:04:37;;;;;;;;;;;;;;;6.61;55.27;102160.50;5047472;28;6929;-70
2022/01/26 08:07:04;;;;;;;;;;;;;;;6.63;55.69;102164.97;5020056;28;6807;-71
2022/01/26 08:09:29;;;;;;;;;;;;;;;6.66;55.34;102170.34;5039553;28;6974;-71
2022/01/26 08:11:55;;;;;;;;;;;;;;;6.69;55.66;102164.66;5007561;28;6980;-71
2022/01/26 08:14:21;;;;;;;;;;;;;;;6.72;55.29;102131.78;5017293;28;7010;-70
2022/01/26 08:16:47;;;;;;;;;;;;;;;6.73;55.05;102125.94;5035649;28;6986;-70
2022/01/26 08:19:13;;;;;;;;;;;;;;;6.72;54.83;102149.63;5038044;28;7271;-71
2022/01/26 08:21:41;;;;;;;;;;;;;;;6.75;55.31;102172.84;5023327;28;7404;-71
2022/01/26 08:24:13;;;;;;;;;;;;;;;6.77;55.21;102158.59;5018171;28;6811;-70
2022/01/26 08:26:46;;;;;;;;;;;;;;;6.79;55.14;102152.00;5041855;28;7307;-70
2022/01/26 08:29:18;;;;;;;;;;;;;;;6.80;54.86;102151.22;5038566;28;7085;-70
2022/01/26 08:31:45;;;;;;;;;;;;;;;6.80;55.50;102158.88;5030246;28;7260;-71
2022/01/26 08:34:11;;;;;;;;;;;;;;;6.79;55.10;102152.00;5032303;28;7293;-71
2022/01/26 08:36:37;;;;;;;;;;;;;;;6.80;55.22;102166.53;5031708;28;7135;-71
2022/01/26 08:39:03;;;;;;;;;;;;;;;6.81;55.23;102170.84;5047161;28;7020;-70
2022/01/26 08:41:29;;;;;;;;;;;;;;;6.83;55.55;102183.75;5030487;28;6950;-70
2022/01/26 08:43:55;;;;;;;;;;;;;;;6.83;55.15;102199.06;5022160;28;7187;-71
2022/01/26 08:46:21;;;;;;;;;;;;;;;6.86;55.32;102204.41;5027312;28;7884;-71
2022/01/26 08:48:48;;;;;;;;;;;;;;;6.90;55.42;102203.94;5038701;28;6819;-71
2022/01/26 08:51:17;;;;;;;;;;;;;;;6.93;55.53;102200.78;5017526;28;6899;-71
2022/01/26 08:53:42;;;;;;;;;;;;;;;6.94;55.12;102206.03;5032428;28;8534;-71
2022/01/26 08:56:08;;;;;;;;;;;;;;;6.95;55.69;102210.38;5040598;28;7388;-71
2022/01/26 08:58:33;;;;;;;;;;;;;;;6.95;55.15;102218.00;5059986;28;6862;-71
2022/01/26 09:00:59;;;;;;;;;;;;;;;6.94;55.51;102217.84;5040404;28;6791;-71
2022/01/26 09:03:25;;;;;;;;;;;;;;;6.92;55.53;102199.91;5040071;28;7187;-71
2022/01/26 09:05:51;;;;;;;;;;;;;;;6.93;55.34;102200.78;5040171;28;6780;-71
2022/01/26 09:08:19;;;;;;;;;;;;;;;6.92;55.24;102193.88;5007792;28;6891;-70
2022/01/26 09:10:45;;;;;;;;;;;;;;;6.90;55.62;102203.06;5049664;28;6995;-70
2022/01/26 09:13:11;;;;;;;;;;;;;;;6.90;55.76;102226.88;5037424;28;6800;-71
2022/01/26 09:15:40;;;;;;;;;;;;;;;6.90;55.73;102218.34;5026469;28;6967;-71
2022/01/26 09:18:08;;;;;;;;;;;;;;;6.89;55.85;102214.88;5027434;28;7027;-71
2022/01/26 09:20:36;;;;;;;;;;;;;;;6.89;55.99;102229.31;5013373;28;7262;-71
2022/01/26 09:23:02;;;;;;;;;;;;;;;6.89;55.69;102214.00;5039446;28;6867;-70
2022/01/26 09:25:28;;;;;;;;;;;;;;;6.89;55.80;102229.31;5029796;28;6804;-71
2022/01/26 09:27:55;;;;;;;;;;;;;;;6.89;56.41;102220.00;5023749;28;7030;-71
2022/01/26 09:30:21;;;;;;;;;;;;;;;6.90;56.31;102210.69;5039558;28;7031;-71
2022/01/26 09:32:46;;;;;;;;;;;;;;;6.92;55.68;102221.94;5042372;28;6875;-71
2022/01/26 09:35:13;;;;;;;;;;;;;;;6.94;56.03;102217.84;5038358;28;7828;-71
2022/01/26 09:37:39;;;;;;;;;;;;;;;6.95;56.39;102230.75;5040596;28;8233;-71
2022/01/26 09:40:06;;;;;;;;;;;;;;;6.96;56.35;102231.66;5026339;28;6954;-71
2022/01/26 09:42:32;;;;;;;;;;;;;;;6.98;55.83;102229.25;5039427;28;7912;-71
2022/01/26 09:45:00;;;;;;;;;;;;;;;6.96;56.56;102226.56;5041761;28;6808;-70
2022/01/26 09:47:26;;;;;;;;;;;;;;;6.93;55.89;102227.19;5021023;28;6812;-70
2022/01/26 09:49:52;;;;;;;;;;;;;;;6.91;56.62;102220.13;5021230;28;6799;-71
2022/01/26 09:52:28;;;;;;;;;;;;;;;6.90;56.80;102231.97;5039446;28;7032;-71
2022/01/26 09:54:59;;;;;;;;;;;;;;;6.90;56.61;102241.28;5041099;28;6900;-70
2022/01/26 09:57:26;;;;;;;;;;;;;;;6.91;56.66;102246.53;5022899;28;6899;-70
2022/01/26 09:59:52;;;;;;;;;;;;;;;6.92;56.72;102240.69;5040168;28;7072;-70
2022/01/26 10:02:26;;;;;;;;;;;;;;;6.93;56.31;102244.13;5040813;28;7008;-70
2022/01/26 10:05:06;;;;;;;;;;;;;;;6.93;56.94;102245.03;5022208;28;7973;-71
2022/01/26 10:07:57;;;;;;;;;;;;;;;6.93;56.83;102255.22;5055453;28;7407;-71
2022/01/26 10:15:49;;;;;;;;;;;;;;;6.94;57.41;102251.91;5024560;28;6904;-71
2022/01/26 10:18:20;;;;;;;;;;;;;;;6.94;57.34;102235.72;5022361;28;6823;-71
2022/01/26 10:20:52;;;;;;;;;;;;;;;6.96;56.86;102229.13;5010342;28;9232;-71
2022/01/26 10:23:21;;;;;;;;;;;;;;;6.94;56.66;102223.88;5038010;28;8537;-71
2022/01/26 10:26:12;;;;;;;;;;;;;;;6.93;56.90;102232.28;5036431;28;6827;-71
2022/01/26 10:28:57;;;;;;;;;;;;;;;6.90;57.22;102215.78;5024246;28;7987;-71
2022/01/26 10:31:31;;;;;;;;;;;;;;;6.84;56.56;102220.31;4999485;28;7845;-71
2022/01/26 10:34:02;;;;;;;;;;;;;;;6.80;57.40;102220.03;5036367;28;7034;-70
2022/01/26 10:36:45;;;;;;;;;;;;;;;6.77;57.24;102227.41;5029764;28;7102;-70
2022/01/26 10:39:29;;;;;;;;;;;;;;;6.73;57.37;102212.59;5024074;28;6893;-71
2022/01/26 10:42:02;;;;;;;;;;;;;;;6.72;57.57;102209.91;5033321;28;7152;-71
2022/01/26 10:44:39;;;;;;;;;;;;;;;6.72;57.49;102205.69;5032437;28;7174;-71
2022/01/26 10:47:08;;;;;;;;;;;;;;;6.73;57.47;102197.28;5022792;28;7058;-71
2022/01/26 10:50:07;;;;;;;;;;;;;;;6.74;58.19;102201.63;5035729;28;9584;-71
2022/01/26 10:52:38;;;;;;;;;;;;;;;6.75;57.44;102203.41;5037066;28;6835;-71
2022/01/26 10:55:09;;;;;;;;;;;;;;;6.76;57.81;102196.69;5037375;28;7900;-71
2022/01/26 10:57:36;;;;;;;;;;;;;;;6.77;58.31;102203.56;5020932;28;6831;-71
2022/01/26 11:00:05;;;;;;;;;;;;;;;6.76;57.48;102196.69;5027371;28;7292;-71
2022/01/26 11:02:33;;;;;;;;;;;;;;;6.77;58.11;102186.63;5031600;28;6816;-71
2022/01/26 11:05:00;;;;;;;;;;;;;;;6.76;58.20;102186.50;5039903;28;7109;-71
2022/01/26 11:07:41;;;;;;;;;;;;;;;6.76;57.71;102182.31;5019922;28;6797;-71
2022/01/26 11:10:09;;;;;;;;;;;;;;;6.78;58.16;102193.53;5037342;28;6918;-71
2022/01/26 11:12:41;;;;;;;;;;;;;;;6.84;58.31;102205.03;5030527;28;6824;-71
2022/01/26 11:15:16;;;;;;;;;;;;;;;6.86;57.70;102209.50;5024083;28;7310;-71
2022/01/26 11:17:46;;;;;;;;;;;;;;;6.91;58.12;102208.31;5038558;28;7329;-71
2022/01/26 11:20:30;;;;;;;;;;;;;;;6.94;58.17;102218.78;5031482;28;6819;-71
2022/01/26 11:23:03;;;;;;;;;;;;;;;6.97;58.05;102213.06;5029336;28;6848;-71
2022/01/26 11:25:44;;;;;;;;;;;;;;;6.99;57.41;102213.19;5037835;28;6831;-71
2022/01/26 11:28:23;;;;;;;;;;;;;;;7.02;57.44;102222.00;5040572;28;6820;-71
2022/01/26 11:30:51;;;;;;;;;;;;;;;7.03;57.46;102205.97;5037719;28;7131;-71
2022/01/26 11:33:24;;;;;;;;;;;;;;;7.05;57.28;102211.22;5028112;28;6819;-71
2022/01/26 11:35:54;;;;;;;;;;;;;;;7.05;57.17;102207.03;5045730;28;6815;-71
2022/01/26 11:47:25;;;;;;;;;;;;;;;7.15;57.88;102226.59;5038796;28;6827;-71
2022/01/26 11:50:12;;;;;;;;;;;;;;;7.18;57.73;102228.53;5030499;28;7267;-71
2022/01/26 11:52:39;;;;;;;;;;;;;;;7.18;57.04;102216.66;5030604;28;6943;-71
2022/01/26 11:55:32;;;;;;;;;;;;;;;7.21;57.17;102209.31;5031648;28;6892;-71
2022/01/26 11:58:17;;;;;;;;;;;;;;;7.24;57.42;102213.75;5023590;28;6900;-71
2022/01/26 12:01:09;;;;;;;;;;;;;;;7.26;57.58;102217.38;5040834;28;7526;-71
2022/01/26 12:03:43;;;;;;;;;;;;;;;7.29;57.49;102201.44;5027864;28;6835;-71
2022/01/26 12:06:22;;;;;;;;;;;;;;;7.31;56.98;102202.47;5007667;28;8680;-71
2022/01/26 12:08:48;;;;;;;;;;;;;;;7.28;57.23;102203.09;5030591;28;7160;-71
2022/01/26 12:11:20;;;;;;;;;;;;;;;7.31;56.46;102223.78;5061493;28;6848;-71
2022/01/26 12:13:50;;;;;;;;;;;;;;;7.32;56.89;102217.03;5027688;28;6828;-71
2022/01/26 12:16:21;;;;;;;;;;;;;;;7.33;57.37;102208.63;5041350;28;6835;-71
2022/01/26 12:19:07;;;;;;;;;;;;;;;7.33;56.50;102209.50;5039215;28;7385;-71
2022/01/26 12:43:32;;;;;;;;;;;;;;;7.40;57.18;102162.50;5029219;28;6915;-71
2022/01/26 12:45:57;;;;;;;;;;;;;;;7.43;56.65;102170.41;5038941;28;6903;-71
2022/01/26 12:48:23;;;;;;;;;;;;;;;7.46;56.77;102172.34;5039880;28;6799;-71
2022/01/26 12:50:50;;;;;;;;;;;;;;;7.48;56.41;102170.81;5025504;28;6923;-70
2022/01/26 12:53:26;;;;;;;;;;;;;;;7.55;57.09;102183.38;5010453;28;7038;-70
2022/01/26 12:56:08;;;;;;;;;;;;;;;7.58;57.20;102175.97;4996512;28;6831;-70
2022/01/26 12:58:37;;;;;;;;;;;;;;;7.59;56.43;102165.00;5041696;28;6827;-70
2022/01/26 13:01:11;;;;;;;;;;;;;;;7.64;57.17;102162.88;5022898;28;7964;-70
2022/01/26 13:03:42;;;;;;;;;;;;;;;7.64;55.77;102160.31;5025143;28;7291;-70
2022/01/26 13:06:21;;;;;;;;;;;;;;;7.66;55.99;102165.56;5013747;28;6827;-70
2022/01/26 13:08:56;;;;;;;;;;;;;;;7.63;56.18;102172.19;5036562;28;8190;-70
2022/01/26 13:11:40;;;;;;;;;;;;;;;7.62;56.16;102164.41;5040064;28;7005;-71
2022/01/26 13:14:27;;;;;;;;;;;;;;;7.60;56.63;102161.69;5033178;28;6996;-70
2022/01/26 13:17:30;;;;;;;;;;;;;;;7.60;56.34;102160.81;5043298;28;7298;-70
2022/01/26 13:39:35;;;;;;;;;;;;;;;7.63;56.64;102164.53;5035519;28;6827;-70
2022/01/26 13:52:47;;;;;;;;;;;;;;;7.70;56.61;102159.94;5021097;28;6975;-70
2022/01/26 13:55:34;;;;;;;;;;;;;;;7.69;56.29;102147.97;5032229;28;6982;-70
2022/01/26 14:00:32;;;;;;;;;;;;;;;7.59;56.30;102131.84;5037575;28;6823;-70
2022/01/26 14:03:01;;;;;;;;;;;;;;;7.56;56.69;102129.03;5013984;28;7576;-70
2022/01/26 14:05:26;;;;;;;;;;;;;;;7.55;55.78;102122.13;5028308;28;8044;-70
2022/01/26 14:07:56;;;;;;;;;;;;;;;7.54;56.43;102133.09;5023059;28;8767;-70
2022/01/26 14:10:22;;;;;;;;;;;;;;;7.53;56.15;102117.66;5021961;28;7306;-70
2022/01/26 14:12:49;;;;;;;;;;;;;;;7.53;56.26;102121.06;5014233;28;6792;-70
2022/01/26 14:15:22;;;;;;;;;;;;;;;7.54;56.93;102105.03;5016171;28;6799;-70
2022/01/26 14:18:12;;;;;;;;;;;;;;;7.53;55.70;102113.41;5026246;28;7911;-70
2022/01/26 14:25:35;;;;;;;;;;;;;;;7.50;55.69;102100.41;5045904;28;6810;-70
2022/01/26 14:28:06;;;;;;;;;;;;;;;7.51;55.73;102086.88;5033749;28;6792;-70
2022/01/26 14:50:57;;;;;;;;;;;;;;;7.48;56.45;102071.31;5021899;28;7637;-70
2022/01/26 14:54:28;;;;;;;;;;;;;;;7.43;56.38;102082.75;5016920;28;7230;-70
2022/01/26 15:12:00;;;;;;;;;;;;;;;7.33;56.05;102102.34;5035456;28;7365;-70
2022/01/26 15:30:16;;;;;;;;;;;;;;;7.23;56.58;102095.56;5028714;28;7402;-70
2022/01/26 15:48:47;;;;;;;;;;;;;;;7.12;56.33;102113.19;5038831;28;6907;-70
2022/01/26 15:51:50;;;;;;;;;;;;;;;7.11;57.04;102108.88;5002539;28;6960;-70
2022/01/26 15:57:35;;;;;;;;;;;;;;;7.05;56.94;102109.22;5020186;28;8070;-70
2022/01/26 16:12:41;;;;;;;;;;;;;;;6.90;57.27;102127.47;5038288;28;7166;-70
2022/01/26 16:16:36;;;;;;;;;;;;;;;6.85;57.16;102127.81;5028577;28;6895;-70
2022/01/26 16:35:44;;;;;;;;;;;;;;;6.83;57.28;102120.03;5039351;28;8033;-70
2022/01/26 16:39:25;;;;;;;;;;;;;;;6.81;57.19;102117.34;5038847;28;7224;-70
2022/01/26 16:52:32;;;;;;;;;;;;;;;6.79;57.78;102088.28;5021004;28;7039;-70
2022/01/26 16:52:46;;;;;;;;;;;;;;;6.78;57.34;102086.47;5036676;28;7972;-70
2022/01/26 17:46:42;;;;;;;;;;;;;;;6.84;56.96;102072.50;5034370;28;7335;-70
2022/01/26 18:07:07;;;;;;;;;;;;;;;6.79;56.53;102075.53;5024989;28;8031;-70
2022/01/26 18:16:40;;;;;;;;;;;;;;;6.81;57.31;102068.03;5024794;28;7013;-70
2022/01/26 18:33:00;;;;;;;;;;;;;;;6.76;57.56;102047.22;5035458;28;7291;-70
2022/01/26 18:38:43;;;;;;;;;;;;;;;6.77;56.96;102035.38;5016755;28;7087;-70
2022/01/26 18:49:19;;;;;;;;;;;;;;;6.80;57.38;102035.63;5023551;28;7257;-70
2022/01/26 18:51:58;;;;;;;;;;;;;;;6.81;57.21;102033.22;5035672;28;6896;-70
2022/01/26 18:54:30;;;;;;;;;;;;;;;6.83;57.01;102028.28;5047975;28;7484;-70
2022/01/26 18:57:00;;;;;;;;;;;;;;;6.86;56.96;102025.13;5055615;28;6815;-70
2022/01/26 18:59:27;;;;;;;;;;;;;;;6.89;57.27;102022.84;5010283;28;7255;-70
2022/01/26 19:01:57;;;;;;;;;;;;;;;6.88;56.91;102014.28;5022953;28;6919;-70
2022/01/26 19:04:34;;;;;;;;;;;;;;;6.88;56.72;102021.91;5019138;28;6942;-70
2022/01/26 19:07:02;;;;;;;;;;;;;;;6.89;57.04;102025.38;5027060;28;6902;-70
2022/01/26 19:09:31;;;;;;;;;;;;;;;6.89;56.64;102023.72;5035976;28;6804;-70
2022/01/26 19:12:01;;;;;;;;;;;;;;;6.91;56.77;102021.31;5029125;28;7300;-70
2022/01/26 19:14:33;;;;;;;;;;;;;;;6.92;56.42;102015.44;5018228;28;6954;-70
2022/01/26 19:17:09;;;;;;;;;;;;;;;6.92;57.19;102021.44;5021837;28;7248;-70
2022/01/26 19:19:56;;;;;;;;;;;;;;;6.93;56.70;102017.22;5030800;28;6997;-71
2022/01/26 19:27:30;;;;;;;;;;;;;;;6.94;56.86;102021.56;5028988;28;7872;-71
2022/01/26 19:41:48;;;;;;;;;;;;;;;6.95;57.04;102024.25;5017024;28;7152;-71
2022/01/26 19:51:42;;;;;;;;;;;;;;;6.98;56.90;102010.00;5024091;28;7376;-71
2022/01/26 19:54:08;;;;;;;;;;;;;;;6.99;56.51;102007.59;5025009;28;6820;-71
2022/01/26 19:56:34;;;;;;;;;;;;;;;6.99;56.19;102002.50;5024420;28;6963;-70
2022/01/26 19:58:59;;;;;;;;;;;;;;;7.00;56.49;102009.38;5025541;28;6792;-71
2022/01/26 20:01:26;;;;;;;;;;;;;;;7.00;56.62;102004.28;5025623;28;6936;-71